首页
METAR-TAF:

METAR-TAF

机场 :

弗洛雷讷, 比利时

纬度: 50-14N, 经度: 004-39E, 海拔: 279米

当前天气观测

该预报发布于20分钟前的02:25 UTC
风速8节,风向北转东北
温度 16°C
湿度 94%
气压 1026 hPa
能见度10公里或以上

METAR: EBFS 270225Z AUTO 02008KT 9999 FEW006/// 16/15 Q1026 BLU

时间: 04:45 (02:45 UTC)

预报

该预报发布于11小时和4分钟前的15:41 UTC
预报有效从26日的 19点(UTC)到 27日的 07点(UTC)
风速10节,风向北转东北,有时为20节阵风
能见度10公里或以上
少量云层高于21000英尺
几率 30% :
短暂存在
从 26日的 02点(UTC)到 26日的 06点(UTC)
能見度: 3000
轻雾

TAF: EBFS 261541Z 2619/2707 02010G20KT 9999 FEW210 PROB30 TEMPO 2602/2606 3000 BR

超过4000个机场的气象观测和天气预报(METAR&TAF报告)。

可查询的气象台以黄色和红色小点在地图上表示。

将鼠标移到小点上方,可查看气象台名称。

然后点击查看天气观测和预报。

如需切换地图:点击带黑十字的绿色按钮放大地图;点击带横线的绿色按钮缩小地图;或者点击绿色箭头查看邻近地区的地图。


METAR-TAF: